Time;durP1;ratioP1;P1;durP2;ratioP2;P2;SDS_P1;SDS_P2;PMS_P1;PMS_P2;Temp;Humidity;BMP_temperature;BMP_pressure;BME280_temperature;BME280_humidity;BME280_pressure;Samples;Min_cycle;Max_cycle;Signal;HPM_P1;HPM_P2
2021/03/17 00:01:58;;;;;;;23.40;13.98;;;;;;;4.34;74.64;99678.06;1757817;80;22129;-81
2021/03/17 00:04:45;;;;;;;37.08;14.25;;;;;;;4.34;74.80;99672.87;1757629;81;20934;-80
2021/03/17 00:07:34;;;;;;;23.92;11.20;;;;;;;4.33;75.11;99682.39;1757678;81;21545;-81
2021/03/17 00:10:23;;;;;;;32.45;13.83;;;;;;;4.28;75.27;99674.00;1757695;80;21442;-82
2021/03/17 00:13:10;;;;;;;19.32;12.65;;;;;;;4.23;75.56;99676.45;1757821;81;21476;-82
2021/03/17 00:16:00;;;;;;;20.90;10.43;;;;;;;4.22;75.92;99671.70;1758313;81;21362;-79
2021/03/17 00:18:46;;;;;;;24.75;11.38;;;;;;;4.24;76.00;99678.95;1757650;81;20989;-81
2021/03/17 00:21:33;;;;;;;29.57;12.95;;;;;;;4.19;76.36;99667.13;1757551;80;20970;-80
2021/03/17 00:24:19;;;;;;;24.32;12.30;;;;;;;4.14;76.56;99672.55;1757579;80;20950;-81
2021/03/17 00:27:06;;;;;;;33.15;14.80;;;;;;;4.11;76.83;99664.47;1757652;81;21040;-81
2021/03/17 00:29:53;;;;;;;35.08;18.42;;;;;;;4.08;76.99;99658.11;1757649;81;21779;-78
2021/03/17 00:32:40;;;;;;;49.93;22.22;;;;;;;4.07;77.26;99668.12;1746530;81;21356;-79
2021/03/17 00:35:28;;;;;;;46.15;20.12;;;;;;;4.08;77.26;99667.66;1744317;81;20947;-78
2021/03/17 00:38:15;;;;;;;44.40;20.15;;;;;;;4.08;77.47;99654.68;1744448;82;20915;-79
2021/03/17 00:41:02;;;;;;;35.95;16.93;;;;;;;4.09;77.66;99670.18;1745292;82;21033;-79
2021/03/17 00:43:48;;;;;;;27.98;15.83;;;;;;;4.07;77.81;99659.04;1745762;82;21629;-79
2021/03/17 00:46:34;;;;;;;37.35;19.82;;;;;;;4.06;77.87;99668.19;1744698;82;21005;-79
2021/03/17 00:49:04;;;;;;;27.02;15.93;;;;;;;4.04;77.97;99661.76;1744950;82;20963;-80
2021/03/17 00:51:34;;;;;;;28.77;15.98;;;;;;;4.00;78.09;99662.81;1746132;82;20998;-78
2021/03/17 00:54:23;;;;;;;26.80;14.83;;;;;;;4.00;78.27;99654.20;1745053;82;20959;-79
2021/03/17 00:56:53;;;;;;;25.60;14.73;;;;;;;4.02;78.50;99660.99;1743864;81;22606;-79
2021/03/17 00:59:21;;;;;;;32.95;15.68;;;;;;;4.04;78.47;99658.33;1744278;81;21066;-78
2021/03/17 01:01:49;;;;;;;32.15;18.32;;;;;;;4.05;78.62;99657.44;1744846;82;20939;-77
2021/03/17 01:04:20;;;;;;;37.55;18.67;;;;;;;4.07;78.70;99660.33;1744285;82;21365;-80
2021/03/17 01:06:47;;;;;;;40.92;20.25;;;;;;;4.10;78.60;99647.20;1744426;82;21578;-80
2021/03/17 01:09:15;;;;;;;32.48;18.17;;;;;;;4.11;78.59;99650.63;1744347;82;21204;-79
2021/03/17 01:11:43;;;;;;;31.42;16.23;;;;;;;4.07;78.64;99649.09;1744166;81;21045;-80
2021/03/17 01:14:12;;;;;;;28.38;14.83;;;;;;;4.07;78.71;99643.91;1744444;82;21508;-78
2021/03/17 01:16:40;;;;;;;29.05;13.98;;;;;;;4.08;78.87;99642.54;1744547;82;21403;-80
2021/03/17 01:19:08;;;;;;;24.72;13.25;;;;;;;4.12;78.87;99647.13;1744506;82;20935;-80
2021/03/17 01:21:36;;;;;;;24.30;13.53;;;;;;;4.12;78.83;99644.54;1744375;81;21325;-80
2021/03/17 01:24:05;;;;;;;26.73;15.00;;;;;;;4.10;78.90;99639.88;1744343;82;21002;-80
2021/03/17 01:26:33;;;;;;;32.28;16.42;;;;;;;4.09;79.01;99633.86;1744209;82;21014;-80
2021/03/17 01:29:01;;;;;;;29.27;16.02;;;;;;;4.07;79.12;99640.88;1744154;82;21364;-80
2021/03/17 01:31:29;;;;;;;21.73;14.50;;;;;;;4.07;79.08;99634.39;1744163;81;20931;-80
2021/03/17 01:33:58;;;;;;;25.72;12.90;;;;;;;4.10;79.27;99636.83;1744272;81;21252;-79
2021/03/17 01:36:26;;;;;;;23.15;13.15;;;;;;;4.17;79.21;99630.05;1744207;82;20950;-80
2021/03/17 01:38:54;;;;;;;27.05;12.85;;;;;;;4.14;79.19;99631.88;1744256;82;20962;-79
2021/03/17 01:41:22;;;;;;;27.32;13.83;;;;;;;4.10;79.40;99636.83;1744238;81;21412;-78
2021/03/17 01:43:50;;;;;;;22.35;15.38;;;;;;;4.09;79.38;99631.70;1744346;82;20963;-80
2021/03/17 01:46:18;;;;;;;26.17;13.70;;;;;;;4.09;79.37;99623.48;1744222;81;21362;-79
2021/03/17 01:48:46;;;;;;;24.95;14.58;;;;;;;4.09;79.32;99618.30;1744541;82;20958;-78
2021/03/17 01:51:15;;;;;;;21.37;12.70;;;;;;;4.13;79.29;99628.05;1744492;82;20935;-78
2021/03/17 01:53:43;;;;;;;27.77;13.58;;;;;;;4.14;79.28;99619.36;1744267;82;21006;-79
2021/03/17 01:56:12;;;;;;;33.55;16.45;;;;;;;4.14;79.40;99624.09;1744190;82;20994;-81
2021/03/17 01:58:39;;;;;;;31.57;15.68;;;;;;;4.14;79.49;99628.44;1744278;82;21781;-78
2021/03/17 02:01:09;;;;;;;38.60;19.45;;;;;;;4.12;79.52;99624.62;1744135;82;20959;-80
2021/03/17 02:03:38;;;;;;;34.70;18.90;;;;;;;4.11;79.57;99616.47;1744198;82;20950;-79
2021/03/17 02:06:07;;;;;;;35.55;18.05;;;;;;;4.10;79.72;99623.85;1744211;81;20951;-79
2021/03/17 02:08:38;;;;;;;31.07;15.55;;;;;;;4.13;79.68;99618.97;1744332;82;21006;-80
2021/03/17 02:11:06;;;;;;;26.60;15.18;;;;;;;4.12;79.64;99625.08;1744232;82;21365;-81
2021/03/17 02:13:46;;;;;;;19.85;11.70;;;;;;;4.09;79.74;99617.00;1744209;81;21012;-80
2021/03/17 02:16:51;;;;;;;19.15;12.18;;;;;;;4.13;79.88;99617.67;1744271;82;20970;-80
2021/03/17 02:19:43;;;;;;;31.68;17.45;;;;;;;4.11;79.88;99619.49;1741586;82;20950;-80
2021/03/17 02:22:35;;;;;;;33.15;18.65;;;;;;;4.07;79.99;99609.75;1744418;82;20994;-79
2021/03/17 02:25:27;;;;;;;36.75;18.00;;;;;;;4.06;80.06;99617.12;1744285;82;21199;-80
2021/03/17 02:28:21;;;;;;;36.10;18.20;;;;;;;4.09;80.04;99628.67;1744358;82;21066;-80
2021/03/17 02:31:25;;;;;;;39.45;18.55;;;;;;;4.12;80.10;99619.43;1734917;82;21368;-81
2021/03/17 02:33:58;;;;;;;38.78;19.50;;;;;;;4.15;80.03;99610.19;1744784;80;21411;-79
2021/03/17 02:36:34;;;;;;;35.78;19.15;;;;;;;4.19;79.99;99612.64;1744454;82;21578;-80
2021/03/17 02:39:41;;;;;;;27.22;16.80;;;;;;;4.20;80.00;99617.73;1744169;81;21571;-80
2021/03/17 02:42:18;;;;;;;29.30;16.12;;;;;;;4.23;79.97;99618.90;1744338;82;20974;-81
2021/03/17 02:44:55;;;;;;;31.15;15.75;;;;;;;4.20;79.98;99615.61;1744435;81;20938;-80
2021/03/17 02:47:26;;;;;;;23.27;14.05;;;;;;;4.23;80.09;99615.00;1744275;81;21440;-80
2021/03/17 02:49:55;;;;;;;26.12;14.05;;;;;;;4.25;79.98;99613.17;1744538;82;20990;-80
2021/03/17 02:52:25;;;;;;;31.27;15.98;;;;;;;4.25;79.97;99617.53;1744357;82;22050;-80
2021/03/17 02:54:53;;;;;;;28.52;16.73;;;;;;;4.21;80.09;99616.00;1744213;82;21018;-80
2021/03/17 02:57:23;;;;;;;23.52;15.80;;;;;;;4.19;80.28;99614.77;1744249;81;20971;-80
2021/03/17 02:59:54;;;;;;;32.23;16.75;;;;;;;4.22;80.33;99613.31;1744279;82;21026;-79
2021/03/17 03:02:23;;;;;;;31.97;16.52;;;;;;;4.23;80.22;99610.28;1744309;81;20990;-80
2021/03/17 03:04:51;;;;;;;31.48;16.62;;;;;;;4.24;80.18;99610.19;1744248;82;21472;-80
2021/03/17 03:07:21;;;;;;;26.25;14.25;;;;;;;4.24;80.10;99607.59;1744207;82;20950;-80
2021/03/17 03:09:51;;;;;;;28.32;15.28;;;;;;;4.28;80.09;99615.61;1744186;81;21333;-81
2021/03/17 03:12:19;;;;;;;31.05;15.60;;;;;;;4.31;80.11;99609.42;1744136;82;21046;-80
2021/03/17 03:14:48;;;;;;;24.35;13.88;;;;;;;4.32;80.17;99617.13;1744242;82;21476;-80
2021/03/17 03:17:16;;;;;;;29.90;15.78;;;;;;;4.36;80.15;99616.53;1744295;82;22297;-80
2021/03/17 03:19:53;;;;;;;31.75;16.30;;;;;;;4.35;80.08;99618.27;1724248;82;20970;-79
2021/03/17 03:22:24;;;;;;;33.73;16.15;;;;;;;4.35;80.11;99618.73;1744814;81;21034;-81
2021/03/17 03:24:54;;;;;;;31.77;14.45;;;;;;;4.35;80.11;99612.24;1744434;82;21571;-79
2021/03/17 03:27:23;;;;;;;29.20;15.13;;;;;;;4.35;80.12;99615.67;1744494;82;21396;-81
2021/03/17 03:29:51;;;;;;;24.72;11.85;;;;;;;4.40;80.09;99614.60;1744352;82;21372;-81
2021/03/17 03:32:20;;;;;;;18.73;11.68;;;;;;;4.42;79.96;99616.20;1723560;81;21022;-81
2021/03/17 03:34:49;;;;;;;26.12;13.05;;;;;;;4.43;79.98;99614.47;1744269;81;20997;-81
2021/03/17 03:37:17;;;;;;;25.27;15.48;;;;;;;4.40;79.99;99611.55;1744307;82;21372;-81
2021/03/17 03:39:46;;;;;;;25.88;13.85;;;;;;;4.41;80.08;99609.34;1744446;82;21357;-80
2021/03/17 03:42:15;;;;;;;29.15;15.75;;;;;;;4.43;80.16;99607.98;1744450;82;21277;-80
2021/03/17 03:44:43;;;;;;;20.43;12.50;;;;;;;4.45;80.05;99611.34;1744306;82;20974;-80
2021/03/17 03:47:11;;;;;;;33.48;14.45;;;;;;;4.45;79.92;99605.68;1744378;82;20959;-80
2021/03/17 03:49:40;;;;;;;34.05;15.60;;;;;;;4.47;79.95;99604.28;1744380;82;21115;-81
2021/03/17 03:52:16;;;;;;;26.40;15.15;;;;;;;4.48;79.93;99604.21;1744373;81;21356;-81
2021/03/17 03:55:02;;;;;;;24.55;13.88;;;;;;;4.46;79.97;99603.91;1700220;82;21214;-82
2021/03/17 03:57:37;;;;;;;24.82;14.28;;;;;;;4.45;80.04;99606.15;1744209;81;20963;-82
2021/03/17 04:00:07;;;;;;;22.05;13.03;;;;;;;4.44;80.03;99605.28;1743773;82;21014;-79
2021/03/17 04:02:41;;;;;;;21.77;13.08;;;;;;;4.42;80.07;99603.69;1744200;82;20922;-81
2021/03/17 04:05:12;;;;;;;25.20;12.13;;;;;;;4.43;80.05;99601.02;1744398;81;20934;-82
2021/03/17 04:07:42;;;;;;;29.72;13.40;;;;;;;4.43;80.06;99603.63;1744561;82;22276;-80
2021/03/17 04:10:12;;;;;;;28.87;13.62;;;;;;;4.44;80.02;99603.98;1744383;82;21365;-81
2021/03/17 04:12:40;;;;;;;26.23;12.85;;;;;;;4.46;80.01;99600.86;1744386;82;20971;-82
2021/03/17 04:15:14;;;;;;;22.95;10.58;;;;;;;4.44;80.09;99604.45;1744296;82;20959;-80
2021/03/17 04:18:01;;;;;;;21.65;11.25;;;;;;;4.43;80.19;99601.02;1744461;82;20958;-81
2021/03/17 04:20:33;;;;;;;20.55;12.30;;;;;;;4.45;80.12;99604.85;1744430;82;21193;-81
2021/03/17 04:23:02;;;;;;;19.73;12.20;;;;;;;4.42;80.23;99604.98;1744369;82;20962;-80
2021/03/17 04:25:32;;;;;;;18.05;9.63;;;;;;;4.44;80.32;99607.05;1744309;82;21052;-81
2021/03/17 04:28:00;;;;;;;17.85;8.38;;;;;;;4.46;80.27;99607.34;1744364;82;20951;-81
2021/03/17 04:30:28;;;;;;;17.27;9.15;;;;;;;4.48;80.24;99607.28;1744405;82;20951;-80
2021/03/17 04:32:57;;;;;;;19.77;11.48;;;;;;;4.46;80.30;99606.52;1744428;80;21193;-79
2021/03/17 04:35:25;;;;;;;19.67;10.80;;;;;;;4.45;80.37;99605.68;1723494;82;20990;-82
2021/03/17 04:37:55;;;;;;;22.67;12.85;;;;;;;4.47;80.33;99605.58;1744542;82;20994;-80
2021/03/17 04:40:24;;;;;;;22.27;12.00;;;;;;;4.46;80.26;99602.62;1723613;82;21463;-82
2021/03/17 04:42:56;;;;;;;22.25;11.90;;;;;;;4.48;80.26;99613.77;1744376;82;21010;-80
2021/03/17 04:45:23;;;;;;;14.50;8.85;;;;;;;4.49;80.31;99608.51;1744410;82;21543;-81
2021/03/17 04:47:53;;;;;;;16.60;9.38;;;;;;;4.52;80.24;99602.31;1744349;82;21373;-80
2021/03/17 04:50:25;;;;;;;15.05;10.28;;;;;;;4.55;80.22;99602.14;1744703;82;21014;-81
2021/03/17 04:52:53;;;;;;;12.20;7.55;;;;;;;4.59;80.40;99598.47;1744708;82;21038;-81
2021/03/17 04:55:20;;;;;;;12.85;9.58;;;;;;;4.66;80.14;99599.00;1744293;81;20938;-81
2021/03/17 04:57:48;;;;;;;16.02;10.30;;;;;;;4.70;80.07;99597.45;1744523;82;21508;-81
2021/03/17 05:00:22;;;;;;;16.77;9.63;;;;;;;4.73;79.81;99604.24;1744331;82;20927;-80
2021/03/17 05:02:55;;;;;;;13.40;8.55;;;;;;;4.73;79.72;99607.67;1744658;82;21365;-81
2021/03/17 05:05:25;;;;;;;12.15;8.68;;;;;;;4.73;79.59;99612.86;1744283;81;21046;-80
2021/03/17 05:07:53;;;;;;;12.73;8.15;;;;;;;4.71;79.72;99605.64;1720253;82;20947;-80
2021/03/17 05:10:23;;;;;;;15.58;8.83;;;;;;;4.70;79.68;99603.12;1723389;82;21884;-81
2021/03/17 05:12:51;;;;;;;15.60;9.53;;;;;;;4.67;79.83;99602.82;1744448;82;21045;-80
2021/03/17 05:15:20;;;;;;;17.17;10.25;;;;;;;4.72;79.81;99603.88;1744370;82;20950;-80
2021/03/17 05:17:49;;;;;;;16.05;10.38;;;;;;;4.74;79.82;99609.83;1744382;81;20946;-80
2021/03/17 05:20:21;;;;;;;13.15;9.88;;;;;;;4.76;79.74;99621.81;1744460;82;21318;-78
2021/03/17 05:22:49;;;;;;;15.50;10.43;;;;;;;4.80;79.60;99617.75;1744410;82;21694;-80
2021/03/17 05:25:22;;;;;;;15.72;9.15;;;;;;;4.82;79.56;99619.80;1744251;82;20959;-80
2021/03/17 05:27:55;;;;;;;17.20;10.20;;;;;;;4.82;79.62;99618.50;1744424;81;20966;-81
2021/03/17 05:30:24;;;;;;;17.75;10.82;;;;;;;4.85;79.81;99617.06;1744323;81;21053;-82
2021/03/17 05:32:53;;;;;;;17.70;11.35;;;;;;;4.90;79.73;99622.38;1744215;82;20958;-82
2021/03/17 05:35:21;;;;;;;19.57;13.08;;;;;;;4.95;79.53;99622.14;1744674;80;21440;-82
2021/03/17 05:37:50;;;;;;;16.40;12.78;;;;;;;4.99;79.56;99624.48;1745290;82;20954;-83
2021/03/17 05:40:19;;;;;;;18.52;12.10;;;;;;;5.03;79.46;99626.48;1744856;82;20942;-80
2021/03/17 05:42:48;;;;;;;17.02;12.33;;;;;;;5.06;79.32;99621.58;1744800;81;20942;-84
2021/03/17 05:45:20;;;;;;;19.48;11.97;;;;;;;5.09;79.23;99620.96;1744845;82;20943;-82
2021/03/17 05:47:51;;;;;;;19.77;12.68;;;;;;;5.14;79.39;99620.72;1741643;82;21393;-79
2021/03/17 05:50:23;;;;;;;19.37;14.68;;;;;;;5.21;79.23;99622.52;1744695;82;20963;-85
2021/03/17 05:52:51;;;;;;;18.07;13.40;;;;;;;5.27;79.23;99629.96;1744751;82;21041;-76
2021/03/17 05:55:20;;;;;;;23.35;15.18;;;;;;;5.33;78.91;99624.44;1744652;82;20954;-78
2021/03/17 05:57:48;;;;;;;24.63;16.30;;;;;;;5.35;78.77;99635.13;1744749;82;21002;-79
2021/03/17 06:00:20;;;;;;;24.18;15.98;;;;;;;5.36;78.76;99627.73;1744727;82;21203;-78
2021/03/17 06:02:49;;;;;;;18.73;14.75;;;;;;;5.40;78.71;99626.64;1744671;81;20931;-76
2021/03/17 06:05:20;;;;;;;19.17;11.43;;;;;;;5.46;78.66;99628.05;1744802;81;21365;-76
2021/03/17 06:07:59;;;;;;;24.65;13.48;;;;;;;5.50;78.68;99629.56;1744591;82;20954;-76
2021/03/17 06:10:28;;;;;;;22.60;15.50;;;;;;;5.53;78.65;99630.68;1744722;82;20998;-78
2021/03/17 06:13:13;;;;;;;22.32;14.60;;;;;;;5.56;78.86;99633.13;1744693;82;21377;-78
2021/03/17 06:16:01;;;;;;;22.00;14.90;;;;;;;5.63;78.70;99627.60;1744799;81;21022;-78
2021/03/17 06:18:37;;;;;;;24.67;15.53;;;;;;;5.73;78.64;99637.38;1744650;82;20970;-80
2021/03/17 06:21:09;;;;;;;23.05;15.50;;;;;;;5.80;78.36;99636.14;1744830;82;20930;-80
2021/03/17 06:23:37;;;;;;;25.37;15.43;;;;;;;5.88;78.06;99639.59;1744948;82;20955;-79
2021/03/17 06:26:07;;;;;;;24.63;15.88;;;;;;;5.92;77.87;99635.06;1745190;81;22410;-82
2021/03/17 06:28:35;;;;;;;23.42;14.93;;;;;;;5.90;77.85;99636.45;1744779;81;21006;-79
2021/03/17 06:31:04;;;;;;;20.27;14.13;;;;;;;5.88;77.86;99638.30;1744762;81;21068;-81
2021/03/17 06:33:32;;;;;;;24.15;18.12;;;;;;;5.86;77.99;99634.11;1744674;81;21062;-81
2021/03/17 06:36:18;;;;;;;32.35;16.42;;;;;;;5.86;78.04;99633.64;1744325;81;20923;-81
2021/03/17 06:38:48;;;;;;;19.85;11.78;;;;;;;5.88;78.11;99634.39;1744292;82;21392;-81
2021/03/17 06:41:18;;;;;;;14.00;10.13;;;;;;;5.89;77.78;99632.63;1744246;82;20959;-79
2021/03/17 06:43:48;;;;;;;15.58;9.50;;;;;;;5.87;77.77;99640.53;1744231;81;21500;-82
2021/03/17 06:46:18;;;;;;;16.45;13.18;;;;;;;5.88;77.86;99643.97;1744214;82;21030;-80
2021/03/17 06:48:50;;;;;;;15.72;12.40;;;;;;;5.87;78.01;99643.13;1742696;81;20911;-81
2021/03/17 06:51:19;;;;;;;16.52;12.90;;;;;;;5.87;78.14;99644.44;1744316;81;22130;-80
2021/03/17 06:53:54;;;;;;;14.23;10.32;;;;;;;5.88;78.32;99644.80;1744388;82;20970;-81
2021/03/17 06:56:32;;;;;;;18.05;12.23;;;;;;;5.90;78.13;99644.25;1744691;81;20998;-81
2021/03/17 06:59:08;;;;;;;16.67;10.63;;;;;;;5.86;78.20;99640.14;1744441;81;20994;-81
2021/03/17 07:01:40;;;;;;;14.10;9.75;;;;;;;5.88;78.27;99639.59;1744548;82;20986;-82
2021/03/17 07:04:13;;;;;;;13.15;9.55;;;;;;;5.90;78.27;99645.55;1745044;82;21444;-81
2021/03/17 07:06:44;;;;;;;16.55;10.45;;;;;;;5.94;78.19;99648.83;1744568;82;21074;-86
2021/03/17 07:09:27;;;;;;;16.30;10.95;;;;;;;5.92;78.35;99652.81;1744648;81;20986;-82
2021/03/17 07:12:10;;;;;;;19.10;12.63;;;;;;;5.87;78.50;99647.03;1744597;81;21666;-81
2021/03/17 07:14:42;;;;;;;14.35;11.50;;;;;;;5.83;78.62;99651.20;1744568;82;21361;-80
2021/03/17 07:17:30;;;;;;;12.80;10.90;;;;;;;5.81;78.85;99656.02;1744475;82;21379;-80
2021/03/17 07:19:58;;;;;;;12.35;9.83;;;;;;;5.81;78.82;99648.20;1744422;82;21054;-80
2021/03/17 07:22:26;;;;;;;12.75;9.23;;;;;;;5.84;78.93;99648.49;1744382;82;20938;-82
2021/03/17 07:24:58;;;;;;;14.35;11.12;;;;;;;5.86;79.01;99645.81;1744309;82;21038;-81
2021/03/17 07:27:28;;;;;;;19.12;10.75;;;;;;;5.87;79.25;99642.27;1744452;82;20943;-81
2021/03/17 07:30:06;;;;;;;15.70;10.78;;;;;;;5.92;79.30;99651.52;1744326;82;20967;-81
2021/03/17 07:33:06;;;;;;;15.55;11.38;;;;;;;5.97;79.28;99653.88;1743619;82;21038;-79
2021/03/17 07:35:36;;;;;;;15.25;11.63;;;;;;;5.99;79.10;99655.47;1744307;81;20998;-79
2021/03/17 07:38:10;;;;;;;15.78;10.13;;;;;;;6.00;79.03;99652.39;1744245;82;21459;-79
2021/03/17 07:40:44;;;;;;;14.65;8.33;;;;;;;6.00;78.86;99651.09;1744414;82;20967;-82
2021/03/17 07:43:14;;;;;;;15.65;10.15;;;;;;;5.97;78.91;99650.81;1745195;82;21183;-89
2021/03/17 07:45:42;;;;;;;15.13;9.88;;;;;;;5.96;79.21;99652.22;1745000;82;20962;-81
2021/03/17 07:48:12;;;;;;;20.10;10.18;;;;;;;5.98;79.26;99652.94;1744294;81;21190;-81
2021/03/17 07:50:43;;;;;;;23.30;16.65;;;;;;;6.01;79.55;99648.41;1744333;81;21471;-82
2021/03/17 07:53:17;;;;;;;15.88;11.38;;;;;;;6.07;79.38;99644.64;1744563;82;21455;-81
2021/03/17 07:55:47;;;;;;;19.52;13.03;;;;;;;6.09;79.18;99646.70;1744703;82;22330;-80
2021/03/17 07:58:16;;;;;;;13.98;10.68;;;;;;;6.09;79.19;99644.53;1744609;81;20970;-82
2021/03/17 08:00:45;;;;;;;16.20;10.55;;;;;;;6.15;79.08;99651.52;1744492;82;21002;-83
2021/03/17 08:03:14;;;;;;;18.12;10.05;;;;;;;6.19;78.87;99653.03;1744378;82;21364;-84
2021/03/17 08:05:43;;;;;;;21.57;12.25;;;;;;;6.22;78.90;99652.02;1744480;82;21436;-83
2021/03/17 08:08:13;;;;;;;27.17;13.83;;;;;;;6.23;78.99;99645.89;1744318;81;21369;-82
2021/03/17 08:10:45;;;;;;;22.32;14.23;;;;;;;6.26;79.02;99648.78;1744245;81;21033;-80
2021/03/17 08:13:13;;;;;;;24.47;14.07;;;;;;;6.32;79.02;99648.43;1744258;82;21014;-76
2021/03/17 08:15:44;;;;;;;25.57;14.13;;;;;;;6.36;78.81;99641.66;1744250;81;21392;-79
2021/03/17 08:18:37;;;;;;;22.48;12.70;;;;;;;6.39;78.70;99638.03;1744253;81;21009;-80
2021/03/17 08:21:05;;;;;;;20.97;11.68;;;;;;;6.42;78.60;99632.19;1744205;82;21771;-81
2021/03/17 08:23:50;;;;;;;22.55;13.48;;;;;;;6.51;78.61;99635.98;1723187;82;21018;-80
2021/03/17 08:26:26;;;;;;;21.65;14.33;;;;;;;6.59;78.51;99636.38;1744215;82;21503;-79
2021/03/17 08:28:56;;;;;;;27.93;19.17;;;;;;;6.64;78.32;99636.94;1744130;81;21498;-81
2021/03/17 08:31:44;;;;;;;23.60;16.50;;;;;;;6.70;78.43;99639.66;1744259;81;21018;-80
2021/03/17 08:34:23;;;;;;;26.57;16.35;;;;;;;6.76;78.16;99633.22;1744306;82;21752;-80
2021/03/17 08:37:01;;;;;;;25.37;16.93;;;;;;;6.81;78.17;99643.75;1744150;82;21069;-79
2021/03/17 08:39:36;;;;;;;32.28;18.90;;;;;;;6.85;78.09;99643.95;1744263;82;20971;-80
2021/03/17 08:42:08;;;;;;;;;;;;;;;6.92;78.04;99647.50;1747076;81;20994;-79
2021/03/17 08:44:43;;;;;;;31.80;18.05;;;;;;;7.01;78.02;99650.84;1744605;81;20157;-78
2021/03/17 08:47:27;;;;;;;24.37;17.17;;;;;;;7.10;78.12;99655.96;1744228;82;21365;-78
2021/03/17 08:50:17;;;;;;;28.52;17.55;;;;;;;7.19;77.96;99656.22;1744200;82;20970;-79
2021/03/17 08:52:49;;;;;;;28.12;18.10;;;;;;;7.28;77.80;99658.73;1744421;81;21424;-81
2021/03/17 08:55:36;;;;;;;29.45;18.07;;;;;;;7.38;77.65;99657.69;1743964;82;21456;-82
2021/03/17 08:58:08;;;;;;;26.73;17.80;;;;;;;7.45;77.35;99654.62;1744650;82;21014;-80
2021/03/17 09:00:47;;;;;;;30.40;18.87;;;;;;;7.55;77.13;99654.86;1744518;82;21982;-80
2021/03/17 09:03:39;;;;;;;26.93;17.15;;;;;;;7.61;77.25;99660.17;1743073;82;20958;-80
2021/03/17 09:06:15;;;;;;;32.08;20.75;;;;;;;7.69;77.14;99656.59;1744278;82;20951;-81
2021/03/17 09:09:07;;;;;;;33.90;20.77;;;;;;;7.71;76.89;99657.81;1744326;82;21372;-81
2021/03/17 09:11:41;;;;;;;34.58;22.17;;;;;;;7.74;76.65;99658.47;1744575;82;20954;-82
2021/03/17 09:14:21;;;;;;;37.38;22.13;;;;;;;7.74;76.70;99666.30;1744447;82;21360;-82
2021/03/17 09:17:13;;;;;;;33.95;20.92;;;;;;;7.77;76.89;99660.87;1744380;82;21380;-81
2021/03/17 09:20:15;;;;;;;38.80;21.90;;;;;;;7.86;76.52;99654.22;1744464;82;21425;-80
2021/03/17 09:22:50;;;;;;;29.70;18.42;;;;;;;7.96;76.32;99657.92;1744735;82;21028;-80
2021/03/17 09:25:28;;;;;;;33.23;20.62;;;;;;;8.03;76.09;99657.06;1724460;82;20954;-80
2021/03/17 09:28:03;;;;;;;27.98;17.75;;;;;;;8.08;76.08;99662.81;1746461;82;21208;-81
2021/03/17 09:30:45;;;;;;;29.87;18.32;;;;;;;8.16;75.83;99671.00;1746224;82;21547;-81
2021/03/17 09:33:18;;;;;;;32.50;20.72;;;;;;;8.23;75.49;99664.42;1738045;82;20967;-81
2021/03/17 09:35:54;;;;;;;32.27;21.97;;;;;;;8.32;75.36;99667.38;1744613;81;20938;-81
2021/03/17 09:38:24;;;;;;;36.15;21.40;;;;;;;8.42;75.26;99664.06;1744583;81;21831;-80
2021/03/17 09:41:00;;;;;;;33.30;21.10;;;;;;;8.54;75.23;99672.88;1744403;82;21446;-79
2021/03/17 09:43:35;;;;;;;28.62;19.10;;;;;;;8.71;74.95;99673.03;1744294;82;20990;-81
2021/03/17 09:46:23;;;;;;;33.08;21.65;;;;;;;8.87;74.42;99665.84;1744421;82;21079;-81
2021/03/17 09:48:53;;;;;;;23.50;17.25;;;;;;;9.05;74.32;99667.66;1734043;82;20942;-83
2021/03/17 09:51:27;;;;;;;24.95;16.37;;;;;;;9.27;73.69;99667.47;1744928;82;20970;-81
2021/03/17 09:53:58;;;;;;;25.48;18.00;;;;;;;9.34;73.08;99666.11;1744309;81;21201;-79
2021/03/17 09:56:38;;;;;;;24.35;17.57;;;;;;;9.45;72.49;99670.56;1744060;82;21053;-81
2021/03/17 09:59:29;;;;;;;31.37;19.48;;;;;;;9.53;72.44;99663.84;1744375;82;20967;-80
2021/03/17 10:02:19;;;;;;;31.23;20.00;;;;;;;9.67;72.13;99661.58;1744357;82;21345;-80
2021/03/17 10:04:55;;;;;;;33.65;21.62;;;;;;;9.74;71.84;99654.95;1744231;82;20963;-79
2021/03/17 10:07:25;;;;;;;29.50;19.80;;;;;;;9.79;71.31;99648.06;1744376;81;21371;-80
2021/03/17 10:09:56;;;;;;;30.20;19.57;;;;;;;9.78;71.07;99649.00;1743967;82;21014;-81
2021/03/17 10:12:31;;;;;;;31.12;18.75;;;;;;;9.78;71.12;99652.09;1744391;81;21025;-82
2021/03/17 10:15:07;;;;;;;32.85;19.42;;;;;;;9.78;70.91;99650.30;1744802;81;21033;-82
2021/03/17 10:17:36;;;;;;;35.43;20.10;;;;;;;9.74;70.99;99652.81;1745292;82;21014;-79
2021/03/17 10:20:14;;;;;;;37.55;22.17;;;;;;;9.70;71.05;99652.66;1744477;81;21361;-79
2021/03/17 10:22:42;;;;;;;40.48;23.45;;;;;;;9.69;70.94;99658.37;1744125;82;20979;-80
2021/03/17 10:25:19;;;;;;;40.48;24.12;;;;;;;9.64;70.85;99653.92;1744066;81;20950;-80
2021/03/17 10:28:04;;;;;;;39.23;23.62;;;;;;;9.49;70.86;99652.40;1744095;82;20946;-80
2021/03/17 10:30:34;;;;;;;34.40;21.35;;;;;;;9.38;71.46;99653.16;1744060;82;21356;-81
2021/03/17 10:33:10;;;;;;;39.05;21.70;;;;;;;9.41;71.54;99655.57;1744277;82;22280;-81
2021/03/17 10:35:40;;;;;;;39.67;23.35;;;;;;;9.44;72.09;99654.52;1744040;81;20931;-78
2021/03/17 10:38:09;;;;;;;41.60;24.75;;;;;;;9.53;71.86;99653.38;1744324;81;21089;-81
2021/03/17 10:40:37;;;;;;;46.13;26.45;;;;;;;9.60;71.68;99650.33;1744415;81;21015;-81
2021/03/17 10:43:12;;;;;;;44.70;28.10;;;;;;;9.63;71.55;99647.52;1744322;81;20990;-79
2021/03/17 10:45:53;;;;;;;46.98;28.30;;;;;;;9.60;71.52;99643.78;1744362;81;22184;-80
2021/03/17 10:49:21;;;;;;;42.88;26.55;;;;;;;9.70;71.71;99654.80;1813764;79;23055;-82
2021/03/17 10:51:54;;;;;;;42.53;26.57;;;;;;;9.75;71.49;99647.44;1783957;80;20955;-79
2021/03/17 10:54:34;;;;;;;44.20;24.85;;;;;;;9.80;70.87;99649.73;1784392;79;22072;-80
2021/03/17 10:57:06;;;;;;;40.23;27.00;;;;;;;9.77;70.88;99650.44;1783157;79;21375;-80
2021/03/17 10:59:36;;;;;;;42.40;26.17;;;;;;;9.71;71.06;99658.25;1784224;80;21527;-81
2021/03/17 11:02:23;;;;;;;42.03;27.42;;;;;;;9.73;71.17;99645.88;1784246;80;20927;-81
2021/03/17 11:05:13;;;;;;;44.27;27.98;;;;;;;9.75;71.06;99651.37;1784454;79;20903;-82
2021/03/17 11:07:55;;;;;;;38.05;27.30;;;;;;;9.79;70.95;99645.93;1784396;80;21363;-81
2021/03/17 11:10:46;;;;;;;49.25;30.17;;;;;;;9.84;70.94;99650.35;1784174;79;21407;-82
2021/03/17 11:13:22;;;;;;;49.48;28.45;;;;;;;9.82;71.12;99645.70;1770938;79;21017;-82
2021/03/17 11:16:04;;;;;;;49.38;28.77;;;;;;;9.84;70.82;99639.39;1784929;80;21011;-84
2021/03/17 11:18:35;;;;;;;49.42;30.50;;;;;;;9.90;70.63;99644.67;1784798;80;20918;-82
2021/03/17 11:21:09;;;;;;;48.50;27.82;;;;;;;9.90;70.44;99644.67;1784522;80;21340;-83
2021/03/17 11:23:40;;;;;;;47.65;27.13;;;;;;;9.85;70.59;99636.30;1784387;80;21005;-83
2021/03/17 11:26:23;;;;;;;44.13;28.27;;;;;;;9.80;70.63;99637.11;1784888;80;21423;-84
2021/03/17 11:28:53;;;;;;;44.73;29.27;;;;;;;9.75;70.72;99638.76;1784616;80;21054;-82
2021/03/17 11:31:33;;;;;;;46.10;28.55;;;;;;;9.79;70.73;99640.21;1784463;80;20934;-82
2021/03/17 11:34:02;;;;;;;45.20;30.10;;;;;;;9.83;70.44;99637.73;1784409;80;22104;-80
2021/03/17 11:36:30;;;;;;;40.98;27.52;;;;;;;9.89;70.29;99633.82;1784403;80;21074;-80
2021/03/17 11:38:59;;;;;;;38.38;25.30;;;;;;;9.92;70.03;99633.61;1784429;80;21047;-81
2021/03/17 11:41:27;;;;;;;38.40;26.27;;;;;;;9.88;70.36;99636.92;1756277;79;21088;-79
2021/03/17 11:43:56;;;;;;;39.95;28.12;;;;;;;9.88;70.40;99633.47;1784212;79;21490;-80
2021/03/17 11:46:25;;;;;;;35.38;24.43;;;;;;;9.85;70.32;99630.61;1784129;79;21357;-81
2021/03/17 11:48:53;;;;;;;40.78;26.82;;;;;;;9.80;70.19;99628.78;1780625;80;20979;-80
2021/03/17 11:51:22;;;;;;;38.73;27.77;;;;;;;9.77;70.21;99636.04;1779359;79;20959;-80
2021/03/17 11:53:52;;;;;;;42.10;27.27;;;;;;;9.73;70.59;99634.10;1779475;79;20962;-81
2021/03/17 11:56:20;;;;;;;41.48;27.25;;;;;;;9.79;70.55;99633.67;1779209;79;20939;-80
2021/03/17 11:58:50;;;;;;;50.43;31.77;;;;;;;9.90;70.67;99636.34;1778904;80;21372;-83
2021/03/17 12:01:18;;;;;;;49.25;32.53;;;;;;;9.92;70.52;99633.14;1778559;79;20958;-81